Time;durP1;ratioP1;P1;durP2;ratioP2;P2;SDS_P1;SDS_P2;PMS_P1;PMS_P2;Temp;Humidity;BMP_temperature;BMP_pressure;BME280_temperature;BME280_humidity;BME280_pressure;Samples;Min_cycle;Max_cycle;Signal;HPM_P1;HPM_P2
2021/05/08 00:01:22;;;;;;;9.50;5.60;;;;;;;;;;12976648;22;20232;-89
2021/05/08 00:06:25;;;;;;;8.63;5.60;;;;;;;;;;12977732;22;20826;-89
2021/05/08 00:11:28;;;;;;;9.93;6.60;;;;;;;;;;12981492;22;20261;-88
2021/05/08 00:16:31;;;;;;;11.17;7.13;;;;;;;;;;12974339;22;20197;-89
2021/05/08 00:21:35;;;;;;;9.10;6.53;;;;;;;;;;12976899;22;20240;-89
2021/05/08 00:26:42;;;;;;;10.50;7.10;;;;;;;;;;12979514;22;20544;-90
2021/05/08 00:31:45;;;;;;;10.87;6.87;;;;;;;;;;12982009;22;20174;-90
2021/05/08 00:36:47;;;;;;;10.43;6.73;;;;;;;;;;12982323;22;20290;-90
2021/05/08 00:41:51;;;;;;;10.23;7.53;;;;;;;;;;12976019;22;20253;-90
2021/05/08 00:46:55;;;;;;;9.63;6.33;;;;;;;;;;12976536;22;20259;-90
2021/05/08 00:51:59;;;;;;;13.13;7.23;;;;;;;;;;12975401;22;20182;-90
2021/05/08 00:57:02;;;;;;;11.30;6.87;;;;;;;;;;12981463;22;20615;-92
2021/05/08 01:02:10;;;;;;;10.43;7.00;;;;;;;;;;12980333;22;20228;-90
2021/05/08 01:07:16;;;;;;;10.17;6.93;;;;;;;;;;12985023;22;20199;-90
2021/05/08 01:12:19;;;;;;;9.67;6.57;;;;;;;;;;12979200;22;20253;-94
2021/05/08 01:17:22;;;;;;;9.53;6.50;;;;;;;;;;12972483;22;20320;-89
2021/05/08 01:22:28;;;;;;;11.63;6.80;;;;;;;;;;12976165;22;20174;-89
2021/05/08 01:27:30;;;;;;;10.33;7.07;;;;;;;;;;12975396;22;20239;-90
2021/05/08 01:32:32;;;;;;;11.87;7.27;;;;;;;;;;12978243;22;20686;-91
2021/05/08 01:37:38;;;;;;;12.33;7.37;;;;;;;;;;12972164;22;20210;-90
2021/05/08 01:42:43;;;;;;;13.40;7.40;;;;;;;;;;12974498;22;20198;-89
2021/05/08 01:47:45;;;;;;;9.70;7.03;;;;;;;;;;12970890;22;20552;-89
2021/05/08 01:52:50;;;;;;;10.87;7.67;;;;;;;;;;12972388;22;20270;-90
2021/05/08 01:57:53;;;;;;;11.63;7.77;;;;;;;;;;12972249;22;20181;-89
2021/05/08 02:02:57;;;;;;;12.43;8.07;;;;;;;;;;12970345;22;20257;-88
2021/05/08 02:08:03;;;;;;;11.30;8.33;;;;;;;;;;12974653;22;20439;-89
2021/05/08 02:13:08;;;;;;;11.47;8.43;;;;;;;;;;12969387;22;20198;-88
2021/05/08 02:18:10;;;;;;;12.33;8.90;;;;;;;;;;12971938;22;20261;-90
2021/05/08 02:23:17;;;;;;;14.20;9.07;;;;;;;;;;12975740;22;20198;-88
2021/05/08 02:28:19;;;;;;;13.33;9.47;;;;;;;;;;12979089;22;20258;-89
2021/05/08 02:33:21;;;;;;;14.17;9.00;;;;;;;;;;12971573;22;20174;-89
2021/05/08 02:38:24;;;;;;;15.80;10.10;;;;;;;;;;12976001;22;20502;-89
2021/05/08 02:43:27;;;;;;;15.17;9.63;;;;;;;;;;12978737;22;20194;-88
2021/05/08 02:48:29;;;;;;;14.70;10.17;;;;;;;;;;12975029;22;20210;-88
2021/05/08 02:53:32;;;;;;;14.60;9.73;;;;;;;;;;12973831;22;20261;-87
2021/05/08 02:58:34;;;;;;;13.80;9.70;;;;;;;;;;12953602;22;20587;-87
2021/05/08 03:03:36;;;;;;;17.07;10.40;;;;;;;;;;12971795;22;20655;-90
2021/05/08 03:08:39;;;;;;;14.00;9.73;;;;;;;;;;12974922;22;20198;-86
2021/05/08 03:13:42;;;;;;;12.20;9.67;;;;;;;;;;12973284;22;20277;-88
2021/05/08 03:18:44;;;;;;;18.63;10.80;;;;;;;;;;12971937;22;20179;-89
2021/05/08 03:23:47;;;;;;;12.67;9.63;;;;;;;;;;12973429;22;20261;-87
2021/05/08 03:28:49;;;;;;;15.33;10.03;;;;;;;;;;12975747;22;20317;-89
2021/05/08 03:33:51;;;;;;;16.33;9.60;;;;;;;;;;12972189;22;20253;-86
2021/05/08 03:38:54;;;;;;;13.87;9.97;;;;;;;;;;12977393;22;20214;-89
2021/05/08 03:43:56;;;;;;;14.10;10.43;;;;;;;;;;12972853;22;20198;-88
2021/05/08 03:48:58;;;;;;;12.80;9.43;;;;;;;;;;12972320;22;20598;-87
2021/05/08 03:54:01;;;;;;;15.30;9.77;;;;;;;;;;12972391;22;20170;-86
2021/05/08 03:59:03;;;;;;;14.33;10.13;;;;;;;;;;12970395;22;20574;-87
2021/05/08 04:04:05;;;;;;;12.93;10.03;;;;;;;;;;12948923;22;20179;-88
2021/05/08 04:09:09;;;;;;;14.67;9.43;;;;;;;;;;12973873;22;20214;-88
2021/05/08 04:14:11;;;;;;;12.60;9.10;;;;;;;;;;12972062;22;20632;-88
2021/05/08 04:19:14;;;;;;;12.77;9.50;;;;;;;;;;12972088;22;20261;-86
2021/05/08 04:24:16;;;;;;;11.83;9.10;;;;;;;;;;12975889;22;20178;-87
2021/05/08 04:29:19;;;;;;;14.07;9.23;;;;;;;;;;12969776;22;20247;-87
2021/05/08 04:34:26;;;;;;;14.43;9.43;;;;;;;;;;12973013;22;20178;-87
2021/05/08 04:39:29;;;;;;;12.03;8.73;;;;;;;;;;12972444;22;20256;-88
2021/05/08 04:44:31;;;;;;;12.83;8.67;;;;;;;;;;12948882;22;20607;-88
2021/05/08 04:49:33;;;;;;;13.47;8.47;;;;;;;;;;12972608;22;20292;-87
2021/05/08 04:54:36;;;;;;;12.23;8.13;;;;;;;;;;12974442;22;20698;-88
2021/05/08 04:59:40;;;;;;;11.33;7.90;;;;;;;;;;12970505;22;20178;-86
2021/05/08 05:04:42;;;;;;;10.33;7.60;;;;;;;;;;12972803;22;20179;-87
2021/05/08 05:09:45;;;;;;;11.60;7.53;;;;;;;;;;12970711;22;20285;-90
2021/05/08 05:14:47;;;;;;;10.27;7.43;;;;;;;;;;12972397;22;20185;-88
2021/05/08 05:19:50;;;;;;;12.10;7.50;;;;;;;;;;12974831;22;20202;-88
2021/05/08 05:24:53;;;;;;;10.10;7.40;;;;;;;;;;12972768;22;20182;-87
